sensor_id;sensor_type;location;lat;lon;timestamp;P1;durP1;ratioP1;P2;durP2;ratioP2
26098;SDS011;13860;52.370;6.764;2022-12-18T00:02:43;107.38;;;31.38;;
26098;SDS011;13860;52.370;6.764;2022-12-18T00:05:55;102.85;;;30.50;;
26098;SDS011;13860;52.370;6.764;2022-12-18T00:09:01;118.47;;;30.70;;
26098;SDS011;13860;52.370;6.764;2022-12-18T00:12:11;100.60;;;30.15;;
26098;SDS011;13860;52.370;6.764;2022-12-18T00:15:24;108.13;;;30.63;;
26098;SDS011;13860;52.370;6.764;2022-12-18T00:18:32;99.93;;;27.75;;
26098;SDS011;13860;52.370;6.764;2022-12-18T00:21:48;101.05;;;31.38;;
26098;SDS011;13860;52.370;6.764;2022-12-18T00:24:52;97.88;;;29.85;;
26098;SDS011;13860;52.370;6.764;2022-12-18T00:27:58;114.13;;;29.13;;
26098;SDS011;13860;52.370;6.764;2022-12-18T00:31:14;111.95;;;30.60;;
26098;SDS011;13860;52.370;6.764;2022-12-18T00:34:24;117.65;;;31.15;;
26098;SDS011;13860;52.370;6.764;2022-12-18T00:37:31;98.03;;;31.23;;
26098;SDS011;13860;52.370;6.764;2022-12-18T00:40:41;96.03;;;30.10;;
26098;SDS011;13860;52.370;6.764;2022-12-18T00:43:48;100.22;;;29.55;;
26098;SDS011;13860;52.370;6.764;2022-12-18T00:46:52;90.72;;;29.00;;
26098;SDS011;13860;52.370;6.764;2022-12-18T00:50:01;91.45;;;29.75;;
26098;SDS011;13860;52.370;6.764;2022-12-18T00:53:10;89.22;;;29.33;;
26098;SDS011;13860;52.370;6.764;2022-12-18T00:56:20;89.18;;;30.08;;
26098;SDS011;13860;52.370;6.764;2022-12-18T00:59:38;90.15;;;27.33;;
26098;SDS011;13860;52.370;6.764;2022-12-18T01:02:45;88.00;;;28.23;;
26098;SDS011;13860;52.370;6.764;2022-12-18T01:05:55;75.47;;;26.58;;
26098;SDS011;13860;52.370;6.764;2022-12-18T01:09:00;74.82;;;27.02;;
26098;SDS011;13860;52.370;6.764;2022-12-18T01:12:16;83.00;;;27.77;;
26098;SDS011;13860;52.370;6.764;2022-12-18T01:15:34;69.22;;;25.08;;
26098;SDS011;13860;52.370;6.764;2022-12-18T01:18:40;66.50;;;24.77;;
26098;SDS011;13860;52.370;6.764;2022-12-18T01:21:47;77.07;;;25.20;;
26098;SDS011;13860;52.370;6.764;2022-12-18T01:24:53;64.15;;;23.50;;
26098;SDS011;13860;52.370;6.764;2022-12-18T01:28:00;73.15;;;24.42;;
26098;SDS011;13860;52.370;6.764;2022-12-18T01:31:16;63.08;;;22.25;;
26098;SDS011;13860;52.370;6.764;2022-12-18T01:34:24;60.63;;;21.77;;
26098;SDS011;13860;52.370;6.764;2022-12-18T01:37:33;68.53;;;22.45;;
26098;SDS011;13860;52.370;6.764;2022-12-18T01:40:41;67.00;;;21.45;;
26098;SDS011;13860;52.370;6.764;2022-12-18T01:43:54;68.50;;;22.92;;
26098;SDS011;13860;52.370;6.764;2022-12-18T01:47:02;55.05;;;20.50;;
26098;SDS011;13860;52.370;6.764;2022-12-18T01:50:12;61.97;;;21.50;;
26098;SDS011;13860;52.370;6.764;2022-12-18T01:53:21;59.33;;;21.63;;
26098;SDS011;13860;52.370;6.764;2022-12-18T01:56:29;61.25;;;21.45;;
26098;SDS011;13860;52.370;6.764;2022-12-18T01:59:39;62.55;;;21.45;;
26098;SDS011;13860;52.370;6.764;2022-12-18T02:03:16;59.55;;;20.65;;
26098;SDS011;13860;52.370;6.764;2022-12-18T02:06:21;59.63;;;20.67;;
26098;SDS011;13860;52.370;6.764;2022-12-18T02:09:33;64.82;;;22.58;;
26098;SDS011;13860;52.370;6.764;2022-12-18T02:12:42;59.83;;;18.77;;
26098;SDS011;13860;52.370;6.764;2022-12-18T02:16:06;54.03;;;19.23;;
26098;SDS011;13860;52.370;6.764;2022-12-18T02:19:40;53.70;;;19.63;;
26098;SDS011;13860;52.370;6.764;2022-12-18T02:23:12;56.70;;;20.10;;
26098;SDS011;13860;52.370;6.764;2022-12-18T02:26:35;58.88;;;21.38;;
26098;SDS011;13860;52.370;6.764;2022-12-18T02:29:50;62.65;;;19.95;;
26098;SDS011;13860;52.370;6.764;2022-12-18T02:32:59;50.25;;;19.42;;
26098;SDS011;13860;52.370;6.764;2022-12-18T02:36:10;55.42;;;18.38;;
26098;SDS011;13860;52.370;6.764;2022-12-18T02:39:22;54.63;;;20.08;;
26098;SDS011;13860;52.370;6.764;2022-12-18T02:42:38;50.88;;;18.23;;
26098;SDS011;13860;52.370;6.764;2022-12-18T02:45:52;50.55;;;17.98;;
26098;SDS011;13860;52.370;6.764;2022-12-18T02:49:01;56.03;;;19.35;;
26098;SDS011;13860;52.370;6.764;2022-12-18T02:52:16;66.57;;;19.15;;
26098;SDS011;13860;52.370;6.764;2022-12-18T02:55:44;54.17;;;19.52;;
26098;SDS011;13860;52.370;6.764;2022-12-18T02:59:00;50.85;;;17.85;;
26098;SDS011;13860;52.370;6.764;2022-12-18T03:02:17;52.60;;;19.13;;
26098;SDS011;13860;52.370;6.764;2022-12-18T03:05:28;55.42;;;19.00;;
26098;SDS011;13860;52.370;6.764;2022-12-18T03:08:39;48.10;;;19.25;;
26098;SDS011;13860;52.370;6.764;2022-12-18T03:11:52;52.80;;;19.27;;
26098;SDS011;13860;52.370;6.764;2022-12-18T03:15:16;45.55;;;17.38;;
26098;SDS011;13860;52.370;6.764;2022-12-18T03:18:30;48.20;;;18.38;;
26098;SDS011;13860;52.370;6.764;2022-12-18T03:21:41;60.55;;;18.10;;
26098;SDS011;13860;52.370;6.764;2022-12-18T03:24:52;36.25;;;13.90;;
26098;SDS011;13860;52.370;6.764;2022-12-18T03:28:05;47.47;;;19.02;;
26098;SDS011;13860;52.370;6.764;2022-12-18T03:31:15;55.17;;;18.65;;
26098;SDS011;13860;52.370;6.764;2022-12-18T03:34:23;41.45;;;16.52;;
26098;SDS011;13860;52.370;6.764;2022-12-18T03:37:35;45.95;;;17.27;;
26098;SDS011;13860;52.370;6.764;2022-12-18T03:40:51;52.72;;;17.45;;
26098;SDS011;13860;52.370;6.764;2022-12-18T03:44:24;50.03;;;17.42;;
26098;SDS011;13860;52.370;6.764;2022-12-18T03:47:46;51.03;;;18.10;;
26098;SDS011;13860;52.370;6.764;2022-12-18T03:51:08;47.88;;;16.77;;
26098;SDS011;13860;52.370;6.764;2022-12-18T03:54:16;48.05;;;16.13;;
26098;SDS011;13860;52.370;6.764;2022-12-18T03:57:29;48.03;;;17.33;;
26098;SDS011;13860;52.370;6.764;2022-12-18T04:00:39;45.28;;;16.77;;
26098;SDS011;13860;52.370;6.764;2022-12-18T04:03:48;42.78;;;16.45;;
26098;SDS011;13860;52.370;6.764;2022-12-18T04:06:56;39.40;;;16.10;;
26098;SDS011;13860;52.370;6.764;2022-12-18T04:10:05;40.28;;;15.70;;
26098;SDS011;13860;52.370;6.764;2022-12-18T04:13:23;42.58;;;16.00;;
26098;SDS011;13860;52.370;6.764;2022-12-18T04:16:28;43.28;;;16.17;;
26098;SDS011;13860;52.370;6.764;2022-12-18T04:19:38;42.47;;;16.02;;
26098;SDS011;13860;52.370;6.764;2022-12-18T04:22:51;38.58;;;15.80;;
26098;SDS011;13860;52.370;6.764;2022-12-18T04:25:55;44.80;;;15.82;;
26098;SDS011;13860;52.370;6.764;2022-12-18T04:29:14;42.47;;;15.93;;
26098;SDS011;13860;52.370;6.764;2022-12-18T04:32:21;41.35;;;16.25;;
26098;SDS011;13860;52.370;6.764;2022-12-18T04:35:31;39.25;;;14.57;;
26098;SDS011;13860;52.370;6.764;2022-12-18T04:38:36;49.08;;;16.25;;
26098;SDS011;13860;52.370;6.764;2022-12-18T04:41:45;42.40;;;14.90;;
26098;SDS011;13860;52.370;6.764;2022-12-18T04:44:53;44.63;;;13.68;;
26098;SDS011;13860;52.370;6.764;2022-12-18T04:48:05;45.67;;;15.77;;
26098;SDS011;13860;52.370;6.764;2022-12-18T04:51:17;34.25;;;14.23;;
26098;SDS011;13860;52.370;6.764;2022-12-18T04:54:29;42.33;;;15.65;;
26098;SDS011;13860;52.370;6.764;2022-12-18T04:57:41;35.38;;;15.75;;
26098;SDS011;13860;52.370;6.764;2022-12-18T05:00:46;43.90;;;15.55;;
26098;SDS011;13860;52.370;6.764;2022-12-18T05:03:56;42.67;;;15.90;;
26098;SDS011;13860;52.370;6.764;2022-12-18T05:07:20;36.50;;;14.13;;
26098;SDS011;13860;52.370;6.764;2022-12-18T05:10:27;36.97;;;15.35;;
26098;SDS011;13860;52.370;6.764;2022-12-18T05:13:59;38.13;;;15.55;;
26098;SDS011;13860;52.370;6.764;2022-12-18T05:17:10;38.47;;;14.02;;
26098;SDS011;13860;52.370;6.764;2022-12-18T05:20:21;40.83;;;14.82;;
26098;SDS011;13860;52.370;6.764;2022-12-18T05:27:02;34.63;;;13.57;;
26098;SDS011;13860;52.370;6.764;2022-12-18T05:30:12;39.05;;;14.27;;
26098;SDS011;13860;52.370;6.764;2022-12-18T05:33:43;32.53;;;12.10;;
26098;SDS011;13860;52.370;6.764;2022-12-18T05:37:00;39.22;;;14.63;;
26098;SDS011;13860;52.370;6.764;2022-12-18T05:40:14;27.45;;;12.35;;
26098;SDS011;13860;52.370;6.764;2022-12-18T05:43:29;33.03;;;13.43;;
26098;SDS011;13860;52.370;6.764;2022-12-18T05:46:38;35.40;;;14.13;;
26098;SDS011;13860;52.370;6.764;2022-12-18T05:49:47;33.20;;;13.75;;
26098;SDS011;13860;52.370;6.764;2022-12-18T05:53:02;33.47;;;13.73;;
26098;SDS011;13860;52.370;6.764;2022-12-18T05:56:13;28.83;;;12.43;;
26098;SDS011;13860;52.370;6.764;2022-12-18T05:59:21;35.83;;;12.43;;
26098;SDS011;13860;52.370;6.764;2022-12-18T06:02:41;29.95;;;11.60;;
26098;SDS011;13860;52.370;6.764;2022-12-18T06:05:54;24.70;;;9.02;;
26098;SDS011;13860;52.370;6.764;2022-12-18T06:09:01;33.10;;;11.73;;
26098;SDS011;13860;52.370;6.764;2022-12-18T06:12:15;30.38;;;12.30;;
26098;SDS011;13860;52.370;6.764;2022-12-18T06:15:21;27.05;;;11.88;;
26098;SDS011;13860;52.370;6.764;2022-12-18T06:18:29;31.77;;;11.88;;
26098;SDS011;13860;52.370;6.764;2022-12-18T06:21:48;31.92;;;11.65;;
26098;SDS011;13860;52.370;6.764;2022-12-18T06:24:54;26.13;;;11.93;;
26098;SDS011;13860;52.370;6.764;2022-12-18T06:28:01;29.20;;;11.65;;
26098;SDS011;13860;52.370;6.764;2022-12-18T06:31:15;35.77;;;12.57;;
26098;SDS011;13860;52.370;6.764;2022-12-18T06:34:24;28.85;;;12.38;;
26098;SDS011;13860;52.370;6.764;2022-12-18T06:37:36;32.40;;;13.10;;
26098;SDS011;13860;52.370;6.764;2022-12-18T06:40:42;36.25;;;11.93;;
26098;SDS011;13860;52.370;6.764;2022-12-18T06:44:05;30.58;;;12.05;;
26098;SDS011;13860;52.370;6.764;2022-12-18T06:47:12;34.70;;;13.23;;
26098;SDS011;13860;52.370;6.764;2022-12-18T06:50:19;32.50;;;12.23;;
26098;SDS011;13860;52.370;6.764;2022-12-18T06:53:23;25.52;;;10.88;;
26098;SDS011;13860;52.370;6.764;2022-12-18T06:56:29;30.58;;;10.55;;
26098;SDS011;13860;52.370;6.764;2022-12-18T06:59:46;33.95;;;11.63;;
26098;SDS011;13860;52.370;6.764;2022-12-18T07:02:51;24.85;;;11.10;;
26098;SDS011;13860;52.370;6.764;2022-12-18T07:05:59;24.30;;;11.05;;
26098;SDS011;13860;52.370;6.764;2022-12-18T07:09:11;30.92;;;12.25;;
26098;SDS011;13860;52.370;6.764;2022-12-18T07:12:22;21.03;;;8.53;;
26098;SDS011;13860;52.370;6.764;2022-12-18T07:15:34;22.60;;;9.73;;
26098;SDS011;13860;52.370;6.764;2022-12-18T07:18:44;34.95;;;12.38;;
26098;SDS011;13860;52.370;6.764;2022-12-18T07:21:53;29.08;;;12.20;;
26098;SDS011;13860;52.370;6.764;2022-12-18T07:24:58;36.42;;;13.18;;
26098;SDS011;13860;52.370;6.764;2022-12-18T07:28:05;31.33;;;12.60;;
26098;SDS011;13860;52.370;6.764;2022-12-18T07:31:25;30.52;;;10.60;;
26098;SDS011;13860;52.370;6.764;2022-12-18T07:34:34;22.50;;;10.98;;
26098;SDS011;13860;52.370;6.764;2022-12-18T07:37:40;26.80;;;10.85;;
26098;SDS011;13860;52.370;6.764;2022-12-18T07:40:46;33.80;;;12.73;;
26098;SDS011;13860;52.370;6.764;2022-12-18T07:43:56;28.58;;;12.07;;
26098;SDS011;13860;52.370;6.764;2022-12-18T07:47:17;30.33;;;11.93;;
26098;SDS011;13860;52.370;6.764;2022-12-18T07:50:23;28.05;;;12.40;;
26098;SDS011;13860;52.370;6.764;2022-12-18T07:53:31;24.13;;;10.38;;
26098;SDS011;13860;52.370;6.764;2022-12-18T07:56:38;25.77;;;11.07;;
26098;SDS011;13860;52.370;6.764;2022-12-18T07:59:57;33.55;;;12.30;;
26098;SDS011;13860;52.370;6.764;2022-12-18T08:03:20;28.73;;;12.30;;
26098;SDS011;13860;52.370;6.764;2022-12-18T08:06:27;26.70;;;11.65;;
26098;SDS011;13860;52.370;6.764;2022-12-18T08:10:00;32.38;;;12.25;;
26098;SDS011;13860;52.370;6.764;2022-12-18T08:13:10;30.40;;;12.85;;
26098;SDS011;13860;52.370;6.764;2022-12-18T08:16:22;27.35;;;11.98;;
26098;SDS011;13860;52.370;6.764;2022-12-18T08:19:47;34.60;;;12.40;;
26098;SDS011;13860;52.370;6.764;2022-12-18T08:22:55;30.97;;;14.43;;
26098;SDS011;13860;52.370;6.764;2022-12-18T08:26:05;25.38;;;11.80;;
26098;SDS011;13860;52.370;6.764;2022-12-18T08:29:23;27.05;;;11.98;;
26098;SDS011;13860;52.370;6.764;2022-12-18T08:32:30;26.35;;;12.20;;
26098;SDS011;13860;52.370;6.764;2022-12-18T08:35:37;30.75;;;12.77;;
26098;SDS011;13860;52.370;6.764;2022-12-18T08:38:46;26.92;;;12.88;;
26098;SDS011;13860;52.370;6.764;2022-12-18T08:41:54;31.17;;;12.20;;
26098;SDS011;13860;52.370;6.764;2022-12-18T08:45:36;28.48;;;12.05;;
26098;SDS011;13860;52.370;6.764;2022-12-18T08:48:46;29.65;;;12.20;;
26098;SDS011;13860;52.370;6.764;2022-12-18T08:51:56;36.85;;;14.32;;
26098;SDS011;13860;52.370;6.764;2022-12-18T08:58:23;21.55;;;11.43;;
26098;SDS011;13860;52.370;6.764;2022-12-18T09:01:42;27.90;;;12.18;;
26098;SDS011;13860;52.370;6.764;2022-12-18T09:05:01;29.92;;;12.65;;
26098;SDS011;13860;52.370;6.764;2022-12-18T09:08:16;27.70;;;12.25;;
26098;SDS011;13860;52.370;6.764;2022-12-18T09:11:53;28.42;;;12.90;;
26098;SDS011;13860;52.370;6.764;2022-12-18T09:15:31;29.45;;;11.85;;
26098;SDS011;13860;52.370;6.764;2022-12-18T09:18:41;24.40;;;10.55;;
26098;SDS011;13860;52.370;6.764;2022-12-18T09:21:56;24.95;;;10.05;;
26098;SDS011;13860;52.370;6.764;2022-12-18T09:25:07;24.35;;;9.90;;
26098;SDS011;13860;52.370;6.764;2022-12-18T09:28:12;20.42;;;9.18;;
26098;SDS011;13860;52.370;6.764;2022-12-18T09:31:29;16.17;;;8.57;;
26098;SDS011;13860;52.370;6.764;2022-12-18T09:34:41;21.88;;;10.00;;
26098;SDS011;13860;52.370;6.764;2022-12-18T09:37:46;25.85;;;10.75;;
26098;SDS011;13860;52.370;6.764;2022-12-18T09:40:59;21.33;;;8.95;;
26098;SDS011;13860;52.370;6.764;2022-12-18T09:47:34;22.08;;;9.80;;
26098;SDS011;13860;52.370;6.764;2022-12-18T09:50:55;17.25;;;8.32;;
26098;SDS011;13860;52.370;6.764;2022-12-18T09:54:06;17.48;;;8.07;;
26098;SDS011;13860;52.370;6.764;2022-12-18T09:57:32;19.50;;;8.20;;
26098;SDS011;13860;52.370;6.764;2022-12-18T10:01:11;14.10;;;7.32;;
26098;SDS011;13860;52.370;6.764;2022-12-18T10:04:27;16.85;;;7.93;;
26098;SDS011;13860;52.370;6.764;2022-12-18T10:07:41;16.33;;;7.35;;
26098;SDS011;13860;52.370;6.764;2022-12-18T10:14:50;17.60;;;6.80;;
26098;SDS011;13860;52.370;6.764;2022-12-18T10:18:07;14.32;;;6.55;;
26098;SDS011;13860;52.370;6.764;2022-12-18T10:21:56;14.32;;;7.43;;
26098;SDS011;13860;52.370;6.764;2022-12-18T10:25:17;14.60;;;7.45;;
26098;SDS011;13860;52.370;6.764;2022-12-18T10:28:30;15.98;;;7.28;;
26098;SDS011;13860;52.370;6.764;2022-12-18T10:32:06;16.05;;;7.10;;
26098;SDS011;13860;52.370;6.764;2022-12-18T10:35:23;19.35;;;7.32;;
26098;SDS011;13860;52.370;6.764;2022-12-18T10:38:35;15.00;;;6.82;;
26098;SDS011;13860;52.370;6.764;2022-12-18T10:41:47;12.55;;;6.40;;
26098;SDS011;13860;52.370;6.764;2022-12-18T10:45:00;14.30;;;7.15;;
26098;SDS011;13860;52.370;6.764;2022-12-18T10:48:22;18.40;;;7.25;;
26098;SDS011;13860;52.370;6.764;2022-12-18T10:51:36;18.05;;;7.57;;
26098;SDS011;13860;52.370;6.764;2022-12-18T10:54:49;16.08;;;6.90;;
26098;SDS011;13860;52.370;6.764;2022-12-18T10:57:55;11.68;;;6.55;;
26098;SDS011;13860;52.370;6.764;2022-12-18T11:05:07;15.65;;;6.82;;
26098;SDS011;13860;52.370;6.764;2022-12-18T11:11:59;13.80;;;6.07;;
26098;SDS011;13860;52.370;6.764;2022-12-18T11:15:27;17.02;;;7.22;;
26098;SDS011;13860;52.370;6.764;2022-12-18T11:18:37;13.73;;;6.77;;
26098;SDS011;13860;52.370;6.764;2022-12-18T11:21:57;15.75;;;7.45;;
26098;SDS011;13860;52.370;6.764;2022-12-18T11:28:42;9.13;;;5.50;;
26098;SDS011;13860;52.370;6.764;2022-12-18T11:32:04;12.77;;;5.60;;
26098;SDS011;13860;52.370;6.764;2022-12-18T11:36:13;11.50;;;6.28;;
26098;SDS011;13860;52.370;6.764;2022-12-18T11:39:28;11.15;;;5.63;;
26098;SDS011;13860;52.370;6.764;2022-12-18T11:42:50;10.18;;;4.68;;
26098;SDS011;13860;52.370;6.764;2022-12-18T11:46:00;10.45;;;5.22;;
26098;SDS011;13860;52.370;6.764;2022-12-18T11:49:20;10.73;;;5.75;;
26098;SDS011;13860;52.370;6.764;2022-12-18T11:52:40;8.75;;;5.07;;
26098;SDS011;13860;52.370;6.764;2022-12-18T11:55:54;8.95;;;5.35;;
26098;SDS011;13860;52.370;6.764;2022-12-18T11:59:08;12.05;;;5.28;;
26098;SDS011;13860;52.370;6.764;2022-12-18T12:02:26;12.65;;;5.65;;
26098;SDS011;13860;52.370;6.764;2022-12-18T12:05:54;15.90;;;6.07;;
26098;SDS011;13860;52.370;6.764;2022-12-18T12:09:23;13.63;;;5.25;;
26098;SDS011;13860;52.370;6.764;2022-12-18T12:12:39;14.95;;;7.38;;
26098;SDS011;13860;52.370;6.764;2022-12-18T12:16:08;19.85;;;8.55;;
26098;SDS011;13860;52.370;6.764;2022-12-18T12:19:36;12.57;;;6.97;;
26098;SDS011;13860;52.370;6.764;2022-12-18T12:23:03;12.52;;;6.03;;
26098;SDS011;13860;52.370;6.764;2022-12-18T12:26:18;9.48;;;4.93;;
26098;SDS011;13860;52.370;6.764;2022-12-18T12:29:44;12.00;;;5.53;;
26098;SDS011;13860;52.370;6.764;2022-12-18T12:33:13;8.35;;;4.88;;
26098;SDS011;13860;52.370;6.764;2022-12-18T12:40:00;11.77;;;6.20;;
26098;SDS011;13860;52.370;6.764;2022-12-18T12:43:31;16.95;;;6.60;;
26098;SDS011;13860;52.370;6.764;2022-12-18T12:47:14;12.05;;;6.10;;
26098;SDS011;13860;52.370;6.764;2022-12-18T12:55:32;8.80;;;4.30;;
26098;SDS011;13860;52.370;6.764;2022-12-18T12:58:53;9.48;;;4.93;;
26098;SDS011;13860;52.370;6.764;2022-12-18T13:02:09;14.48;;;6.38;;
26098;SDS011;13860;52.370;6.764;2022-12-18T13:05:33;8.63;;;5.05;;
26098;SDS011;13860;52.370;6.764;2022-12-18T13:08:57;7.53;;;4.07;;
26098;SDS011;13860;52.370;6.764;2022-12-18T13:12:15;9.90;;;4.78;;
26098;SDS011;13860;52.370;6.764;2022-12-18T13:16:03;10.75;;;4.72;;
26098;SDS011;13860;52.370;6.764;2022-12-18T13:19:25;12.50;;;5.67;;
26098;SDS011;13860;52.370;6.764;2022-12-18T13:22:45;11.77;;;5.10;;
26098;SDS011;13860;52.370;6.764;2022-12-18T13:29:49;10.40;;;5.22;;
26098;SDS011;13860;52.370;6.764;2022-12-18T13:40:55;11.25;;;5.22;;
26098;SDS011;13860;52.370;6.764;2022-12-18T13:44:28;16.23;;;6.32;;
26098;SDS011;13860;52.370;6.764;2022-12-18T13:47:41;10.30;;;5.43;;
26098;SDS011;13860;52.370;6.764;2022-12-18T13:50:55;8.15;;;5.15;;
26098;SDS011;13860;52.370;6.764;2022-12-18T13:54:12;9.57;;;4.38;;
26098;SDS011;13860;52.370;6.764;2022-12-18T13:57:34;10.48;;;4.75;;
26098;SDS011;13860;52.370;6.764;2022-12-18T14:00:52;8.57;;;4.47;;
26098;SDS011;13860;52.370;6.764;2022-12-18T14:04:11;9.48;;;5.05;;
26098;SDS011;13860;52.370;6.764;2022-12-18T14:07:21;8.93;;;3.90;;
26098;SDS011;13860;52.370;6.764;2022-12-18T14:10:53;7.45;;;4.15;;
26098;SDS011;13860;52.370;6.764;2022-12-18T14:14:11;11.52;;;4.43;;
26098;SDS011;13860;52.370;6.764;2022-12-18T14:20:49;12.38;;;5.97;;
26098;SDS011;13860;52.370;6.764;2022-12-18T14:24:12;11.18;;;5.05;;
26098;SDS011;13860;52.370;6.764;2022-12-18T14:27:46;10.57;;;4.72;;
26098;SDS011;13860;52.370;6.764;2022-12-18T14:30:55;12.35;;;5.32;;
26098;SDS011;13860;52.370;6.764;2022-12-18T14:34:28;11.05;;;5.07;;
26098;SDS011;13860;52.370;6.764;2022-12-18T14:37:48;11.85;;;5.63;;
26098;SDS011;13860;52.370;6.764;2022-12-18T14:41:06;13.45;;;5.35;;
26098;SDS011;13860;52.370;6.764;2022-12-18T14:44:20;10.35;;;5.57;;
26098;SDS011;13860;52.370;6.764;2022-12-18T14:47:53;11.05;;;5.85;;
26098;SDS011;13860;52.370;6.764;2022-12-18T14:51:03;11.48;;;5.65;;
26098;SDS011;13860;52.370;6.764;2022-12-18T14:54:14;13.93;;;5.88;;
26098;SDS011;13860;52.370;6.764;2022-12-18T14:57:32;12.90;;;6.40;;
26098;SDS011;13860;52.370;6.764;2022-12-18T15:00:46;12.07;;;6.57;;
26098;SDS011;13860;52.370;6.764;2022-12-18T15:04:21;14.90;;;6.05;;
26098;SDS011;13860;52.370;6.764;2022-12-18T15:07:41;13.10;;;6.60;;
26098;SDS011;13860;52.370;6.764;2022-12-18T15:11:01;13.25;;;6.40;;
26098;SDS011;13860;52.370;6.764;2022-12-18T15:18:10;11.48;;;6.78;;
26098;SDS011;13860;52.370;6.764;2022-12-18T15:21:42;13.98;;;5.95;;
26098;SDS011;13860;52.370;6.764;2022-12-18T15:24:50;15.80;;;6.50;;
26098;SDS011;13860;52.370;6.764;2022-12-18T15:27:57;12.38;;;6.50;;
26098;SDS011;13860;52.370;6.764;2022-12-18T15:31:22;11.85;;;6.00;;
26098;SDS011;13860;52.370;6.764;2022-12-18T15:34:44;12.77;;;7.00;;
26098;SDS011;13860;52.370;6.764;2022-12-18T15:38:06;13.82;;;6.65;;
26098;SDS011;13860;52.370;6.764;2022-12-18T15:41:26;14.82;;;7.45;;
26098;SDS011;13860;52.370;6.764;2022-12-18T15:44:40;13.55;;;6.68;;
26098;SDS011;13860;52.370;6.764;2022-12-18T15:48:17;15.23;;;7.70;;
26098;SDS011;13860;52.370;6.764;2022-12-18T15:51:36;15.15;;;7.38;;
26098;SDS011;13860;52.370;6.764;2022-12-18T15:54:55;14.77;;;6.45;;
26098;SDS011;13860;52.370;6.764;2022-12-18T15:58:21;15.85;;;6.65;;
26098;SDS011;13860;52.370;6.764;2022-12-18T16:01:29;16.80;;;6.93;;
26098;SDS011;13860;52.370;6.764;2022-12-18T16:04:45;13.25;;;7.38;;
26098;SDS011;13860;52.370;6.764;2022-12-18T16:07:57;16.40;;;7.40;;
26098;SDS011;13860;52.370;6.764;2022-12-18T16:11:25;17.10;;;7.68;;
26098;SDS011;13860;52.370;6.764;2022-12-18T16:14:44;19.67;;;8.27;;
26098;SDS011;13860;52.370;6.764;2022-12-18T16:18:02;14.98;;;7.85;;
26098;SDS011;13860;52.370;6.764;2022-12-18T16:24:48;14.75;;;7.25;;
26098;SDS011;13860;52.370;6.764;2022-12-18T16:28:01;15.13;;;6.97;;
26098;SDS011;13860;52.370;6.764;2022-12-18T16:31:10;15.75;;;7.97;;
26098;SDS011;13860;52.370;6.764;2022-12-18T16:34:22;14.75;;;7.30;;
26098;SDS011;13860;52.370;6.764;2022-12-18T16:37:34;16.75;;;7.40;;
26098;SDS011;13860;52.370;6.764;2022-12-18T16:40:50;19.55;;;7.93;;
26098;SDS011;13860;52.370;6.764;2022-12-18T16:47:41;15.88;;;7.00;;
26098;SDS011;13860;52.370;6.764;2022-12-18T16:51:00;11.43;;;6.57;;
26098;SDS011;13860;52.370;6.764;2022-12-18T16:54:05;15.70;;;6.45;;
26098;SDS011;13860;52.370;6.764;2022-12-18T16:57:22;16.58;;;7.57;;
26098;SDS011;13860;52.370;6.764;2022-12-18T17:00:30;18.75;;;8.40;;
26098;SDS011;13860;52.370;6.764;2022-12-18T17:03:58;14.90;;;7.80;;
26098;SDS011;13860;52.370;6.764;2022-12-18T17:07:13;16.27;;;7.47;;
26098;SDS011;13860;52.370;6.764;2022-12-18T17:13:43;15.32;;;7.80;;
26098;SDS011;13860;52.370;6.764;2022-12-18T17:16:52;15.85;;;7.82;;
26098;SDS011;13860;52.370;6.764;2022-12-18T17:20:17;26.25;;;8.68;;
26098;SDS011;13860;52.370;6.764;2022-12-18T17:23:21;20.70;;;9.57;;
26098;SDS011;13860;52.370;6.764;2022-12-18T17:26:31;20.33;;;9.50;;
26098;SDS011;13860;52.370;6.764;2022-12-18T17:29:41;25.70;;;8.52;;
26098;SDS011;13860;52.370;6.764;2022-12-18T17:32:52;16.95;;;7.47;;
26098;SDS011;13860;52.370;6.764;2022-12-18T17:35:57;15.85;;;7.85;;
26098;SDS011;13860;52.370;6.764;2022-12-18T17:39:04;14.32;;;7.80;;
26098;SDS011;13860;52.370;6.764;2022-12-18T17:42:27;12.20;;;6.65;;
26098;SDS011;13860;52.370;6.764;2022-12-18T17:45:44;13.50;;;6.68;;
26098;SDS011;13860;52.370;6.764;2022-12-18T17:48:48;13.52;;;7.22;;
26098;SDS011;13860;52.370;6.764;2022-12-18T17:51:58;15.48;;;7.93;;
26098;SDS011;13860;52.370;6.764;2022-12-18T17:55:26;15.35;;;7.70;;
26098;SDS011;13860;52.370;6.764;2022-12-18T17:58:38;15.43;;;6.78;;
26098;SDS011;13860;52.370;6.764;2022-12-18T18:01:48;19.77;;;7.85;;
26098;SDS011;13860;52.370;6.764;2022-12-18T18:04:58;12.93;;;6.28;;
26098;SDS011;13860;52.370;6.764;2022-12-18T18:08:18;13.93;;;7.07;;
26098;SDS011;13860;52.370;6.764;2022-12-18T18:11:36;14.82;;;7.57;;
26098;SDS011;13860;52.370;6.764;2022-12-18T18:15:02;16.55;;;7.72;;
26098;SDS011;13860;52.370;6.764;2022-12-18T18:18:10;21.52;;;8.50;;
26098;SDS011;13860;52.370;6.764;2022-12-18T18:21:21;13.88;;;7.95;;
26098;SDS011;13860;52.370;6.764;2022-12-18T18:24:36;15.98;;;6.60;;
26098;SDS011;13860;52.370;6.764;2022-12-18T18:27:45;16.88;;;7.78;;
26098;SDS011;13860;52.370;6.764;2022-12-18T18:31:02;15.90;;;8.00;;
26098;SDS011;13860;52.370;6.764;2022-12-18T18:34:19;19.13;;;9.18;;
26098;SDS011;13860;52.370;6.764;2022-12-18T18:37:26;14.65;;;7.45;;
26098;SDS011;13860;52.370;6.764;2022-12-18T18:40:31;15.10;;;8.40;;
26098;SDS011;13860;52.370;6.764;2022-12-18T18:43:43;19.75;;;8.52;;
26098;SDS011;13860;52.370;6.764;2022-12-18T18:46:53;20.33;;;10.13;;
26098;SDS011;13860;52.370;6.764;2022-12-18T18:50:15;18.88;;;9.73;;
26098;SDS011;13860;52.370;6.764;2022-12-18T18:53:20;22.52;;;10.13;;
26098;SDS011;13860;52.370;6.764;2022-12-18T18:56:44;22.20;;;11.02;;
26098;SDS011;13860;52.370;6.764;2022-12-18T19:03:29;23.90;;;10.75;;
26098;SDS011;13860;52.370;6.764;2022-12-18T19:06:41;19.80;;;9.98;;
26098;SDS011;13860;52.370;6.764;2022-12-18T19:09:58;18.23;;;9.35;;
26098;SDS011;13860;52.370;6.764;2022-12-18T19:13:07;19.05;;;9.05;;
26098;SDS011;13860;52.370;6.764;2022-12-18T19:16:30;24.90;;;9.70;;
26098;SDS011;13860;52.370;6.764;2022-12-18T19:19:39;21.58;;;11.23;;
26098;SDS011;13860;52.370;6.764;2022-12-18T19:22:56;26.42;;;11.80;;
26098;SDS011;13860;52.370;6.764;2022-12-18T19:26:06;28.30;;;12.45;;
26098;SDS011;13860;52.370;6.764;2022-12-18T19:29:38;24.45;;;13.30;;
26098;SDS011;13860;52.370;6.764;2022-12-18T19:32:51;30.73;;;12.90;;
26098;SDS011;13860;52.370;6.764;2022-12-18T19:36:17;26.83;;;13.23;;
26098;SDS011;13860;52.370;6.764;2022-12-18T19:39:45;25.63;;;12.07;;
26098;SDS011;13860;52.370;6.764;2022-12-18T19:43:01;25.05;;;11.43;;
26098;SDS011;13860;52.370;6.764;2022-12-18T19:46:32;27.73;;;12.13;;
26098;SDS011;13860;52.370;6.764;2022-12-18T19:49:44;27.15;;;12.18;;
26098;SDS011;13860;52.370;6.764;2022-12-18T19:52:55;29.45;;;13.00;;
26098;SDS011;13860;52.370;6.764;2022-12-18T19:56:15;26.60;;;12.73;;
26098;SDS011;13860;52.370;6.764;2022-12-18T19:59:51;29.70;;;13.10;;
26098;SDS011;13860;52.370;6.764;2022-12-18T20:03:06;32.40;;;15.02;;
26098;SDS011;13860;52.370;6.764;2022-12-18T20:06:32;31.35;;;13.50;;
26098;SDS011;13860;52.370;6.764;2022-12-18T20:09:47;34.65;;;13.52;;
26098;SDS011;13860;52.370;6.764;2022-12-18T20:13:07;27.73;;;13.32;;
26098;SDS011;13860;52.370;6.764;2022-12-18T20:16:27;32.50;;;14.98;;
26098;SDS011;13860;52.370;6.764;2022-12-18T20:19:35;34.33;;;15.25;;